Time;durP1;ratioP1;P1;durP2;ratioP2;P2;SDS_P1;SDS_P2;PMS_P1;PMS_P2;Temp;Humidity;BMP_temperature;BMP_pressure;BME280_temperature;BME280_humidity;BME280_pressure;Samples;Min_cycle;Max_cycle;Signal;HPM_P1;HPM_P2
2022/06/28 00:00:36;;;;;;;0.00;0.00;;;21.50;99.90;;;;;;4935039;29;20223;-75
2022/06/28 00:03:04;;;;;;;0.00;0.00;;;21.40;99.90;;;;;;4934860;29;20217;-74
2022/06/28 00:05:32;;;;;;;0.00;0.00;;;21.40;99.90;;;;;;4934834;29;20226;-73
2022/06/28 00:08:00;;;;;;;0.00;0.00;;;21.40;99.90;;;;;;4935155;29;20666;-73
2022/06/28 00:10:28;;;;;;;0.00;0.00;;;21.40;99.90;;;;;;4934860;29;20225;-74
2022/06/28 00:12:59;;;;;;;0.00;0.00;;;21.30;99.90;;;;;;4935751;29;20194;-73
2022/06/28 00:18:12;;;;;;;0.00;0.00;;;21.20;99.90;;;;;;4934403;29;20240;-73
2022/06/28 00:20:40;;;;;;;0.00;0.00;;;21.30;99.90;;;;;;4934716;29;20707;-72
2022/06/28 00:23:08;;;;;;;0.00;0.00;;;21.40;99.90;;;;;;4933753;29;20276;-72
2022/06/28 00:25:36;;;;;;;0.00;0.00;;;21.60;99.90;;;;;;4934160;29;20268;-72
2022/06/28 00:28:05;;;;;;;0.00;0.00;;;21.70;99.90;;;;;;4927887;29;20564;-73
2022/06/28 00:30:33;;;;;;;0.00;0.00;;;21.80;99.90;;;;;;4934861;29;20222;-74
2022/06/28 00:33:01;;;;;;;0.00;0.00;;;21.80;99.90;;;;;;4917878;29;20346;-73
2022/06/28 00:35:29;;;;;;;0.00;0.00;;;21.80;99.90;;;;;;4915938;29;20678;-73
2022/06/28 00:37:56;;;;;;;0.00;0.00;;;21.80;99.90;;;;;;4933441;29;20666;-73
2022/06/28 00:40:25;;;;;;;0.00;0.00;;;21.90;99.90;;;;;;4935096;29;20713;-73
2022/06/28 00:42:53;;;;;;;0.00;0.00;;;21.90;99.90;;;;;;4933334;29;20678;-74
2022/06/28 00:45:23;;;;;;;0.00;0.00;;;21.90;99.90;;;;;;4932211;29;20230;-73
2022/06/28 00:47:51;;;;;;;0.00;0.00;;;22.00;99.90;;;;;;4917472;29;20697;-73
2022/06/28 00:50:19;;;;;;;0.00;0.00;;;22.00;99.90;;;;;;4933276;29;20224;-73
2022/06/28 00:53:01;;;;;;;0.00;0.00;;;22.00;99.90;;;;;;4917821;29;20674;-73
2022/06/28 00:55:28;;;;;;;0.00;0.00;;;21.90;99.90;;;;;;4917180;29;20677;-73
2022/06/28 00:57:56;;;;;;;0.00;0.00;;;22.00;99.90;;;;;;4917322;29;20190;-76
2022/06/28 01:00:25;;;;;;;0.00;0.00;;;22.10;99.90;;;;;;4922421;29;20260;-74
2022/06/28 01:02:54;;;;;;;0.00;0.00;;;22.00;99.90;;;;;;4917528;29;20202;-74
2022/06/28 01:05:22;;;;;;;0.00;0.00;;;21.80;99.90;;;;;;4916680;29;20236;-75
2022/06/28 01:07:50;;;;;;;0.00;0.00;;;21.90;99.90;;;;;;4934132;29;20684;-74
2022/06/28 01:10:18;;;;;;;0.00;0.00;;;21.90;99.90;;;;;;4934391;29;20214;-74
2022/06/28 01:12:45;;;;;;;0.00;0.00;;;22.00;99.90;;;;;;4916980;29;20202;-73
2022/06/28 01:15:14;;;;;;;0.00;0.00;;;22.00;99.90;;;;;;4916863;29;20217;-73
2022/06/28 01:18:03;;;;;;;0.00;0.00;;;22.00;99.90;;;;;;4915984;29;20206;-73
2022/06/28 01:20:42;;;;;;;0.00;0.00;;;21.90;99.90;;;;;;4928109;29;20233;-71
2022/06/28 01:23:20;;;;;;;0.00;0.00;;;21.70;99.90;;;;;;4918687;29;20208;-70
2022/06/28 01:25:53;;;;;;;0.00;0.00;;;21.40;99.90;;;;;;4916908;29;20606;-71
2022/06/28 01:28:28;;;;;;;0.00;0.00;;;21.40;99.90;;;;;;4916687;29;20194;-71
2022/06/28 01:31:04;;;;;;;0.00;0.00;;;21.50;99.90;;;;;;4917239;29;20197;-71
2022/06/28 01:33:33;;;;;;;0.00;0.00;;;21.40;99.90;;;;;;4932668;29;20250;-71
2022/06/28 01:36:01;;;;;;;0.00;0.00;;;21.40;99.90;;;;;;4916806;29;20202;-73
2022/06/28 01:38:31;;;;;;;0.00;0.00;;;21.40;99.90;;;;;;4916151;29;20234;-75
2022/06/28 01:40:59;;;;;;;0.00;0.00;;;21.10;99.90;;;;;;4917639;29;20569;-72
2022/06/28 01:43:27;;;;;;;0.00;0.00;;;21.00;99.90;;;;;;4933894;29;20194;-71
2022/06/28 01:45:55;;;;;;;0.00;0.00;;;20.90;99.90;;;;;;4934359;29;20277;-71
2022/06/28 01:48:24;;;;;;;0.00;0.00;;;21.00;99.90;;;;;;4917094;29;20210;-74
2022/06/28 01:51:01;;;;;;;0.00;0.00;;;20.80;99.90;;;;;;4917341;29;20249;-71
2022/06/28 01:53:31;;;;;;;0.00;0.00;;;20.70;99.90;;;;;;4916734;29;20280;-72
2022/06/28 01:56:05;;;;;;;0.00;0.00;;;20.50;99.90;;;;;;4934315;29;20250;-72
2022/06/28 01:59:00;;;;;;;0.00;0.00;;;20.50;99.90;;;;;;4930065;29;20305;-74
2022/06/28 02:01:37;;;;;;;0.00;0.00;;;20.50;99.90;;;;;;4913386;29;20301;-75
2022/06/28 02:04:18;;;;;;;0.00;0.00;;;20.40;99.90;;;;;;4917494;29;20202;-76
2022/06/28 02:06:49;;;;;;;0.00;0.00;;;20.50;99.90;;;;;;4916924;29;20237;-72
2022/06/28 02:09:20;;;;;;;0.00;0.00;;;20.60;99.90;;;;;;4916303;29;20722;-71
2022/06/28 02:11:50;;;;;;;0.00;0.00;;;20.60;99.90;;;;;;4933320;29;20627;-71
2022/06/28 02:14:23;;;;;;;0.00;0.00;;;20.70;99.90;;;;;;4933883;29;20204;-72
2022/06/28 02:16:56;;;;;;;0.00;0.00;;;20.60;99.90;;;;;;4917365;29;20217;-71
2022/06/28 02:19:25;;;;;;;0.00;0.00;;;20.70;99.90;;;;;;4932838;29;20236;-72
2022/06/28 02:21:53;;;;;;;0.00;0.00;;;20.80;99.90;;;;;;4916717;29;20298;-75
2022/06/28 02:24:26;;;;;;;0.00;0.00;;;20.60;99.90;;;;;;4916996;29;20198;-75
2022/06/28 02:26:54;;;;;;;0.00;0.00;;;20.60;99.90;;;;;;4916208;29;20230;-71
2022/06/28 02:29:22;;;;;;;0.00;0.00;;;20.60;99.90;;;;;;4915392;29;20222;-74
2022/06/28 02:31:49;;;;;;;0.00;0.00;;;20.60;99.90;;;;;;4931986;29;20206;-72
2022/06/28 02:42:31;;;;;;;0.00;0.00;;;20.20;99.90;;;;;;4915710;29;20198;-72
2022/06/28 02:45:00;;;;;;;0.00;0.00;;;20.20;99.90;;;;;;4916567;29;20222;-73
2022/06/28 02:47:27;;;;;;;0.00;0.00;;;20.10;99.90;;;;;;4935904;29;20206;-74
2022/06/28 02:49:55;;;;;;;0.00;0.00;;;20.20;99.90;;;;;;4936329;29;20222;-74
2022/06/28 02:52:23;;;;;;;0.00;0.00;;;20.30;99.90;;;;;;4936370;29;20422;-74
2022/06/28 02:54:52;;;;;;;0.00;0.00;;;20.40;99.90;;;;;;4936718;29;20194;-71
2022/06/28 02:57:20;;;;;;;0.00;0.00;;;20.30;99.90;;;;;;4918376;29;20218;-72
2022/06/28 02:59:48;;;;;;;0.00;0.00;;;20.40;99.90;;;;;;4919210;29;20222;-72
2022/06/28 03:02:16;;;;;;;0.00;0.00;;;20.40;99.90;;;;;;4919320;29;20210;-72
2022/06/28 03:04:44;;;;;;;0.00;0.00;;;20.40;99.90;;;;;;4919542;29;20254;-72
2022/06/28 03:07:13;;;;;;;0.00;0.00;;;20.30;99.90;;;;;;4921240;29;20228;-73
2022/06/28 03:09:41;;;;;;;0.00;0.00;;;20.30;99.90;;;;;;4919888;29;20232;-73
2022/06/28 03:12:10;;;;;;;0.00;0.00;;;20.40;99.90;;;;;;4920177;29;20206;-71
2022/06/28 03:14:38;;;;;;;0.00;0.00;;;20.30;99.90;;;;;;4935322;29;20218;-71
2022/06/28 03:17:06;;;;;;;0.00;0.00;;;20.30;99.90;;;;;;4919499;29;20207;-75
2022/06/28 03:19:37;;;;;;;0.00;0.00;;;20.20;99.90;;;;;;4935755;29;20218;-72
2022/06/28 03:22:05;;;;;;;0.00;0.00;;;20.30;99.90;;;;;;4936046;29;20199;-73
2022/06/28 03:24:33;;;;;;;0.00;0.00;;;20.30;99.90;;;;;;4918834;29;20300;-73
2022/06/28 03:27:00;;;;;;;0.00;0.00;;;20.30;99.90;;;;;;4919145;29;20233;-71
2022/06/28 03:29:30;;;;;;;0.00;0.00;;;20.30;99.90;;;;;;4935170;29;20210;-71
2022/06/28 03:31:58;;;;;;;0.00;0.00;;;20.30;99.90;;;;;;4917775;29;20221;-71
2022/06/28 03:34:26;;;;;;;0.00;0.00;;;20.40;99.90;;;;;;4925536;29;20202;-71
2022/06/28 03:36:55;;;;;;;0.00;0.00;;;20.40;99.90;;;;;;4921779;29;20198;-71
2022/06/28 03:39:35;;;;;;;0.00;0.00;;;20.40;99.90;;;;;;4920612;29;20260;-71
2022/06/28 03:42:04;;;;;;;0.00;0.00;;;20.40;99.90;;;;;;4908248;29;20199;-71
2022/06/28 03:44:35;;;;;;;0.00;0.00;;;20.20;99.90;;;;;;4910720;29;20203;-72
2022/06/28 03:47:06;;;;;;;0.00;0.00;;;20.00;99.90;;;;;;4900042;29;20227;-71
2022/06/28 03:49:52;;;;;;;0.00;0.00;;;20.00;99.90;;;;;;4919327;29;20219;-73
2022/06/28 03:52:39;;;;;;;0.00;0.00;;;20.20;99.90;;;;;;4928209;29;20657;-71
2022/06/28 03:55:13;;;;;;;0.00;0.00;;;20.30;99.90;;;;;;4936126;29;20213;-71
2022/06/28 03:57:51;;;;;;;0.00;0.00;;;20.30;99.90;;;;;;4917603;29;20206;-71
2022/06/28 04:00:21;;;;;;;0.00;0.00;;;20.30;99.90;;;;;;4933262;29;20222;-71
2022/06/28 04:02:51;;;;;;;0.00;0.00;;;20.30;99.90;;;;;;4925447;29;20210;-71
2022/06/28 04:05:24;;;;;;;0.00;0.00;;;20.30;99.90;;;;;;4918238;29;20679;-72
2022/06/28 04:07:53;;;;;;;0.00;0.00;;;20.40;99.90;;;;;;4928923;29;20206;-72
2022/06/28 04:10:31;;;;;;;0.00;0.00;;;20.40;99.90;;;;;;4910876;29;20218;-72
2022/06/28 04:13:07;;;;;;;0.00;0.00;;;20.30;99.90;;;;;;4917538;29;20206;-72
2022/06/28 04:15:38;;;;;;;0.00;0.00;;;20.30;99.90;;;;;;4917338;29;20216;-73
2022/06/28 04:18:10;;;;;;;0.00;0.00;;;20.40;99.90;;;;;;4928227;29;20205;-72
2022/06/28 04:20:50;;;;;;;0.00;0.00;;;20.40;99.90;;;;;;4928981;29;20237;-72
2022/06/28 04:23:18;;;;;;;0.00;0.00;;;20.40;99.90;;;;;;4917862;29;20270;-72
2022/06/28 04:25:46;;;;;;;0.00;0.00;;;20.40;99.90;;;;;;4934492;29;20301;-72
2022/06/28 04:28:24;;;;;;;0.00;0.00;;;20.40;99.90;;;;;;4917674;29;20204;-72
2022/06/28 04:31:07;;;;;;;0.00;0.00;;;20.40;99.90;;;;;;4938777;29;20202;-72
2022/06/28 04:33:36;;;;;;;0.00;0.00;;;20.40;99.90;;;;;;4923937;29;20206;-73
2022/06/28 04:36:05;;;;;;;0.00;0.00;;;20.40;99.90;;;;;;4936577;29;20225;-73
2022/06/28 04:38:35;;;;;;;0.00;0.00;;;20.30;99.90;;;;;;4918509;29;20430;-72
2022/06/28 04:41:07;;;;;;;0.00;0.00;;;20.40;99.90;;;;;;4929751;29;20203;-72
2022/06/28 04:43:55;;;;;;;0.00;0.00;;;20.30;99.90;;;;;;4906307;29;20290;-76
2022/06/28 04:46:32;;;;;;;0.00;0.00;;;20.30;99.90;;;;;;4906240;29;20218;-73
2022/06/28 04:49:11;;;;;;;0.00;0.00;;;20.30;99.90;;;;;;4934736;29;20205;-73
2022/06/28 04:51:44;;;;;;;0.00;0.00;;;20.30;99.90;;;;;;4917701;29;20265;-73
2022/06/28 04:54:19;;;;;;;0.00;0.00;;;20.30;99.90;;;;;;4918138;29;20692;-73
2022/06/28 04:57:07;;;;;;;0.00;0.00;;;20.20;99.90;;;;;;4930877;29;20203;-71
2022/06/28 04:59:35;;;;;;;0.00;0.00;;;20.30;99.90;;;;;;4916932;29;20237;-72
2022/06/28 05:02:10;;;;;;;0.00;0.00;;;20.30;99.90;;;;;;4916560;29;20250;-74
2022/06/28 05:04:38;;;;;;;0.00;0.00;;;20.20;99.90;;;;;;4930566;29;20242;-72
2022/06/28 05:07:17;;;;;;;0.00;0.00;;;20.20;99.90;;;;;;4916310;29;20417;-72
2022/06/28 05:09:45;;;;;;;0.00;0.00;;;20.20;99.90;;;;;;4927756;29;20320;-71
2022/06/28 05:12:13;;;;;;;0.00;0.00;;;20.10;99.90;;;;;;4917801;29;20208;-71
2022/06/28 05:14:45;;;;;;;0.00;0.00;;;20.00;99.90;;;;;;4916876;29;20209;-72
2022/06/28 05:17:16;;;;;;;0.00;0.00;;;20.00;99.90;;;;;;4916432;29;20301;-74
2022/06/28 05:19:44;;;;;;;0.00;0.00;;;20.00;99.90;;;;;;4932957;29;20228;-73
2022/06/28 05:22:14;;;;;;;0.00;0.00;;;20.00;99.90;;;;;;4917369;29;20198;-72
2022/06/28 05:25:04;;;;;;;0.00;0.00;;;19.80;99.90;;;;;;4933277;29;20573;-72
2022/06/28 05:27:32;;;;;;;0.00;0.00;;;19.80;99.90;;;;;;4933299;29;20282;-72
2022/06/28 05:30:00;;;;;;;0.00;0.00;;;19.70;99.90;;;;;;4917041;29;20262;-72
2022/06/28 05:32:30;;;;;;;0.00;0.00;;;19.70;99.90;;;;;;4928272;29;20205;-72
2022/06/28 05:34:58;;;;;;;0.00;0.00;;;19.70;99.90;;;;;;4934333;29;20206;-72
2022/06/28 05:37:26;;;;;;;0.00;0.00;;;19.70;99.90;;;;;;4934695;29;20194;-72
2022/06/28 05:39:54;;;;;;;0.00;0.00;;;19.50;99.90;;;;;;4916997;29;20222;-72
2022/06/28 05:42:21;;;;;;;0.00;0.00;;;19.40;99.90;;;;;;4917214;29;20210;-71
2022/06/28 05:44:49;;;;;;;0.00;0.00;;;19.40;99.90;;;;;;4917654;29;20214;-72
2022/06/28 05:47:17;;;;;;;0.00;0.00;;;19.40;99.90;;;;;;4907541;29;20235;-73
2022/06/28 05:49:46;;;;;;;0.00;0.00;;;19.40;99.90;;;;;;4900909;29;20222;-72
2022/06/28 05:52:14;;;;;;;0.00;0.00;;;19.30;99.90;;;;;;4916987;29;20206;-72
2022/06/28 05:54:42;;;;;;;0.00;0.00;;;19.30;99.90;;;;;;4913995;29;20687;-72
2022/06/28 05:57:10;;;;;;;0.00;0.00;;;19.30;99.90;;;;;;4898701;29;20195;-72
2022/06/28 05:59:38;;;;;;;0.00;0.00;;;19.40;99.90;;;;;;4899045;29;20254;-72
2022/06/28 06:02:07;;;;;;;0.00;0.00;;;19.30;99.90;;;;;;4899577;29;20211;-72
2022/06/28 06:04:35;;;;;;;0.00;0.00;;;19.30;99.90;;;;;;4899369;29;20239;-71
2022/06/28 06:07:05;;;;;;;0.00;0.00;;;19.30;99.90;;;;;;4899284;29;20237;-72
2022/06/28 06:09:32;;;;;;;0.00;0.00;;;19.20;99.90;;;;;;4899106;29;20223;-72
2022/06/28 06:12:04;;;;;;;0.00;0.00;;;19.20;99.90;;;;;;4899584;29;20213;-71
2022/06/28 06:14:32;;;;;;;0.00;0.00;;;19.30;99.90;;;;;;4899246;29;20207;-71
2022/06/28 06:17:00;;;;;;;0.00;0.00;;;19.40;99.90;;;;;;4899357;29;20239;-71
2022/06/28 06:19:28;;;;;;;0.00;0.00;;;19.50;99.90;;;;;;4914752;29;20223;-71
2022/06/28 06:21:56;;;;;;;0.00;0.00;;;19.50;99.90;;;;;;4918442;29;20223;-71
2022/06/28 06:24:25;;;;;;;0.00;0.00;;;19.60;99.90;;;;;;4918866;29;20206;-71
2022/06/28 06:27:13;;;;;;;0.00;0.00;;;19.60;99.90;;;;;;4919025;29;20723;-71
2022/06/28 06:29:42;;;;;;;0.00;0.00;;;19.80;99.90;;;;;;4900996;29;20289;-71
2022/06/28 06:32:18;;;;;;;0.00;0.00;;;19.70;99.90;;;;;;4902064;29;20207;-71
2022/06/28 06:35:20;;;;;;;0.00;0.00;;;19.70;99.90;;;;;;4920568;29;20204;-72
2022/06/28 06:37:49;;;;;;;0.00;0.00;;;19.80;99.90;;;;;;4905257;29;20638;-70
2022/06/28 06:40:19;;;;;;;0.00;0.00;;;19.90;99.90;;;;;;4905625;29;20676;-71
2022/06/28 06:42:47;;;;;;;0.00;0.00;;;20.10;99.90;;;;;;4904677;29;20202;-71
2022/06/28 06:45:15;;;;;;;0.00;0.00;;;20.10;99.90;;;;;;4921803;29;20199;-71
2022/06/28 06:47:43;;;;;;;0.00;0.00;;;19.90;99.90;;;;;;4902765;29;20314;-71
2022/06/28 06:50:11;;;;;;;0.00;0.00;;;19.80;99.90;;;;;;4903131;29;20721;-71
2022/06/28 06:52:39;;;;;;;0.00;0.00;;;19.80;99.90;;;;;;4919302;29;20222;-70
2022/06/28 06:55:09;;;;;;;0.00;0.00;;;19.80;99.90;;;;;;4919679;29;20211;-73
2022/06/28 06:57:40;;;;;;;0.00;0.00;;;19.90;99.90;;;;;;4901582;29;20222;-71
2022/06/28 07:00:10;;;;;;;0.00;0.00;;;19.90;99.90;;;;;;4901866;29;20226;-71
2022/06/28 07:02:40;;;;;;;0.00;0.00;;;20.10;99.90;;;;;;4919635;29;20595;-71
2022/06/28 07:05:10;;;;;;;0.00;0.00;;;20.40;99.90;;;;;;4902060;29;20210;-71
2022/06/28 07:07:39;;;;;;;0.00;0.00;;;20.50;99.90;;;;;;4901704;29;20776;-72
2022/06/28 07:10:08;;;;;;;0.00;0.00;;;20.70;99.90;;;;;;4901086;29;20227;-72
2022/06/28 07:12:35;;;;;;;0.00;0.00;;;20.80;99.90;;;;;;4900829;29;20215;-72
2022/06/28 07:15:07;;;;;;;0.00;0.00;;;20.80;99.90;;;;;;4901191;29;20298;-71
2022/06/28 07:17:38;;;;;;;0.00;0.00;;;20.90;99.90;;;;;;4900510;29;20313;-71
2022/06/28 07:20:07;;;;;;;0.00;0.00;;;20.90;99.90;;;;;;4900971;29;20237;-71
2022/06/28 07:22:35;;;;;;;0.00;0.00;;;20.90;99.90;;;;;;4900703;29;20217;-71
2022/06/28 07:25:06;;;;;;;0.00;0.00;;;20.80;99.90;;;;;;4900613;29;20210;-71
2022/06/28 07:27:34;;;;;;;0.00;0.00;;;20.70;99.90;;;;;;4917379;29;20226;-71
2022/06/28 07:30:02;;;;;;;0.00;0.00;;;20.70;99.90;;;;;;4900246;29;20314;-71
2022/06/28 07:32:32;;;;;;;0.00;0.00;;;20.80;99.90;;;;;;4900541;29;20699;-72
2022/06/28 07:34:59;;;;;;;0.00;0.00;;;20.80;99.90;;;;;;4900759;29;20586;-73
2022/06/28 07:37:27;;;;;;;0.00;0.00;;;20.90;99.90;;;;;;4917856;29;20195;-73
2022/06/28 07:39:57;;;;;;;0.00;0.00;;;21.20;99.90;;;;;;4901139;29;20222;-73
2022/06/28 07:42:31;;;;;;;0.00;0.00;;;21.40;99.90;;;;;;4918170;29;20301;-73
2022/06/28 07:45:28;;;;;;;0.00;0.00;;;21.70;99.90;;;;;;4904595;29;20215;-72
2022/06/28 07:48:10;;;;;;;0.00;0.00;;;21.80;99.90;;;;;;4900636;29;20602;-71
2022/06/28 07:53:25;;;;;;;0.00;0.00;;;22.10;99.90;;;;;;4900720;29;20211;-72
2022/06/28 07:56:18;;;;;;;0.00;0.00;;;21.60;99.90;;;;;;4901415;29;20663;-72
2022/06/28 07:58:48;;;;;;;0.00;0.00;;;21.50;99.90;;;;;;4902200;29;20255;-71
2022/06/28 08:01:21;;;;;;;0.00;0.00;;;21.60;99.90;;;;;;4902774;29;20674;-72
2022/06/28 08:03:52;;;;;;;0.00;0.00;;;22.00;99.90;;;;;;4903928;29;20295;-72
2022/06/28 08:06:21;;;;;;;0.00;0.00;;;22.30;99.90;;;;;;4900785;29;20210;-72
2022/06/28 08:08:53;;;;;;;0.00;0.00;;;22.50;99.90;;;;;;4900229;29;20707;-73
2022/06/28 08:11:21;;;;;;;0.00;0.00;;;22.80;99.90;;;;;;4900814;29;20304;-72
2022/06/28 08:13:50;;;;;;;0.00;0.00;;;22.90;99.90;;;;;;4900437;29;20203;-71
2022/06/28 08:16:18;;;;;;;0.00;0.00;;;23.10;99.90;;;;;;4900216;29;20203;-71
2022/06/28 08:18:46;;;;;;;0.00;0.00;;;23.30;99.90;;;;;;4900319;29;20209;-72
2022/06/28 08:21:22;;;;;;;0.00;0.00;;;23.40;99.90;;;;;;4900437;29;20572;-71
2022/06/28 08:23:50;;;;;;;0.00;0.00;;;23.80;99.90;;;;;;4901056;29;20689;-72
2022/06/28 08:26:18;;;;;;;0.00;0.00;;;24.00;99.90;;;;;;4900294;29;20229;-73
2022/06/28 08:28:45;;;;;;;0.00;0.00;;;24.10;99.90;;;;;;4899718;29;20227;-72
2022/06/28 08:31:13;;;;;;;0.00;0.00;;;24.20;99.90;;;;;;4900830;29;20399;-71
2022/06/28 08:33:41;;;;;;;0.00;0.00;;;24.00;99.90;;;;;;4918134;29;20214;-72
2022/06/28 08:36:09;;;;;;;0.00;0.00;;;24.10;99.90;;;;;;4917062;29;20201;-72
2022/06/28 08:38:38;;;;;;;0.00;0.00;;;24.30;99.90;;;;;;4917029;29;20203;-71
2022/06/28 08:41:07;;;;;;;0.00;0.00;;;24.40;99.90;;;;;;4916625;29;20209;-73
2022/06/28 08:43:35;;;;;;;0.00;0.00;;;23.90;99.90;;;;;;4917117;29;20207;-72
2022/06/28 08:46:03;;;;;;;0.00;0.00;;;24.10;99.70;;;;;;4936983;28;20209;-72
2022/06/28 08:48:34;;;;;;;0.00;0.00;;;24.30;99.60;;;;;;4916817;29;20249;-72
2022/06/28 08:51:03;;;;;;;0.00;0.00;;;24.30;97.90;;;;;;4916763;29;20215;-73
2022/06/28 08:53:33;;;;;;;0.00;0.00;;;24.30;98.20;;;;;;4924515;29;20198;-72
2022/06/28 08:56:05;;;;;;;0.00;0.00;;;24.70;97.80;;;;;;4954580;29;20201;-73
2022/06/28 08:58:34;;;;;;;0.00;0.00;;;25.10;97.20;;;;;;4954369;28;20197;-73
2022/06/28 09:01:02;;;;;;;0.00;0.00;;;24.70;97.20;;;;;;4954280;29;20202;-72
2022/06/28 09:03:30;;;;;;;0.00;0.00;;;24.80;97.30;;;;;;4954477;29;20237;-73
2022/06/28 09:05:57;;;;;;;0.00;0.00;;;24.80;97.50;;;;;;4954518;29;20625;-73
2022/06/28 09:08:25;;;;;;;0.00;0.00;;;24.70;96.60;;;;;;4954882;29;20217;-72
2022/06/28 09:10:53;;;;;;;0.00;0.00;;;25.00;97.30;;;;;;4955741;28;20213;-73
2022/06/28 09:13:22;;;;;;;0.00;0.00;;;25.30;97.00;;;;;;4958502;29;20197;-72
2022/06/28 09:15:54;;;;;;;0.00;0.00;;;25.40;96.30;;;;;;4962126;29;20205;-72
2022/06/28 09:18:24;;;;;;;0.00;0.00;;;25.50;97.30;;;;;;4961011;29;20190;-72
2022/06/28 09:20:54;;;;;;;0.00;0.00;;;25.80;96.90;;;;;;4951413;28;20230;-72
2022/06/28 09:23:27;;;;;;;0.00;0.00;;;25.90;96.50;;;;;;4926638;29;20214;-72
2022/06/28 09:25:57;;;;;;;0.00;0.00;;;25.80;96.60;;;;;;4926604;29;20214;-72
2022/06/28 09:28:29;;;;;;;0.00;0.00;;;25.60;96.60;;;;;;4935781;29;20202;-72
2022/06/28 09:31:17;;;;;;;0.00;0.00;;;25.70;96.50;;;;;;4941793;29;20206;-72
2022/06/28 09:33:47;;;;;;;0.00;0.00;;;26.00;96.00;;;;;;4941484;29;20202;-72
2022/06/28 09:36:17;;;;;;;0.00;0.00;;;26.30;95.70;;;;;;4940181;29;20206;-72
2022/06/28 09:38:45;;;;;;;0.00;0.00;;;26.50;95.10;;;;;;4940055;29;20666;-72
2022/06/28 09:41:21;;;;;;;0.00;0.00;;;26.60;94.90;;;;;;4940000;29;20316;-72
2022/06/28 09:43:56;;;;;;;0.00;0.00;;;26.60;94.30;;;;;;4939511;29;20581;-72
2022/06/28 09:46:26;;;;;;;0.00;0.00;;;26.60;94.80;;;;;;4940555;29;20249;-72
2022/06/28 09:48:59;;;;;;;0.00;0.00;;;26.80;94.60;;;;;;4937611;29;20233;-73
2022/06/28 09:51:29;;;;;;;0.00;0.00;;;27.00;94.30;;;;;;4939820;29;20699;-73
2022/06/28 09:53:59;;;;;;;0.00;0.00;;;27.10;93.50;;;;;;4942324;29;20222;-75
2022/06/28 09:56:53;;;;;;;0.00;0.00;;;27.10;92.70;;;;;;4946563;29;20210;-75
2022/06/28 09:59:24;;;;;;;0.00;0.00;;;27.20;92.80;;;;;;4941436;29;20304;-74
2022/06/28 10:01:54;;;;;;;0.00;0.00;;;27.30;92.10;;;;;;4938621;29;20233;-75
2022/06/28 10:04:23;;;;;;;0.00;0.00;;;27.00;91.30;;;;;;4938564;29;20201;-75
2022/06/28 10:06:51;;;;;;;0.00;0.00;;;26.90;92.10;;;;;;4935541;29;20191;-74
2022/06/28 10:09:21;;;;;;;0.00;0.00;;;27.20;91.90;;;;;;4923300;29;21197;-75
2022/06/28 10:17:39;;;;;;;0.00;0.00;;;27.60;91.70;;;;;;4918924;29;20210;-74
2022/06/28 10:20:10;;;;;;;0.00;0.00;;;27.60;91.40;;;;;;4918872;29;20267;-74
2022/06/28 10:22:38;;;;;;;0.00;0.00;;;27.70;91.20;;;;;;4919831;29;20203;-74
2022/06/28 10:25:15;;;;;;;0.00;0.00;;;27.80;91.00;;;;;;4919365;29;20213;-75
2022/06/28 10:27:48;;;;;;;0.00;0.00;;;27.50;90.80;;;;;;4918738;29;20195;-74
2022/06/28 10:30:26;;;;;;;0.00;0.00;;;27.40;90.10;;;;;;4918802;29;20223;-75
2022/06/28 10:32:57;;;;;;;0.00;0.00;;;27.20;90.30;;;;;;4919102;29;20203;-75
2022/06/28 10:36:02;;;;;;;0.00;0.00;;;27.10;91.10;;;;;;4919009;29;20269;-75
2022/06/28 10:38:31;;;;;;;0.00;0.00;;;27.00;91.40;;;;;;4901327;29;20211;-75
2022/06/28 10:41:18;;;;;;;0.00;0.00;;;27.40;91.00;;;;;;4919058;29;20191;-75
2022/06/28 10:43:48;;;;;;;0.00;0.00;;;27.60;89.80;;;;;;4918950;29;20195;-74
2022/06/28 10:46:18;;;;;;;0.00;0.00;;;27.80;89.90;;;;;;4918922;29;20207;-74
2022/06/28 10:49:16;;;;;;;0.00;0.00;;;27.60;89.50;;;;;;4918419;29;20672;-74
2022/06/28 10:52:10;;;;;;;0.00;0.00;;;27.90;88.40;;;;;;4841561;29;20218;-74
2022/06/28 10:54:40;;;;;;;0.00;0.00;;;28.10;88.60;;;;;;4914242;29;20215;-75
2022/06/28 10:57:21;;;;;;;0.00;0.00;;;28.40;87.40;;;;;;4917580;29;20210;-75
2022/06/28 10:59:51;;;;;;;0.00;0.00;;;28.60;86.50;;;;;;4917867;29;20215;-75
2022/06/28 11:02:20;;;;;;;0.00;0.00;;;28.70;85.80;;;;;;4919440;29;20387;-75
2022/06/28 11:05:04;;;;;;;0.00;0.00;;;28.70;85.80;;;;;;4920132;29;20207;-75
2022/06/28 11:07:34;;;;;;;0.00;0.00;;;28.40;86.90;;;;;;4920203;29;20203;-75
2022/06/28 11:10:13;;;;;;;0.00;0.00;;;28.70;85.20;;;;;;4917951;29;20227;-75
2022/06/28 11:12:43;;;;;;;0.00;0.00;;;28.50;83.90;;;;;;4917851;29;20207;-75
2022/06/28 11:15:12;;;;;;;0.00;0.00;;;28.20;85.40;;;;;;4917890;29;20195;-75
2022/06/28 11:17:43;;;;;;;0.00;0.00;;;28.20;86.00;;;;;;4917520;29;20201;-74
2022/06/28 11:20:12;;;;;;;0.00;0.00;;;28.20;86.70;;;;;;4917962;29;20609;-75
2022/06/28 11:22:43;;;;;;;0.00;0.00;;;28.40;86.10;;;;;;4917888;29;20203;-75
2022/06/28 11:25:12;;;;;;;0.00;0.00;;;28.50;86.00;;;;;;4918457;29;20682;-75
2022/06/28 11:27:44;;;;;;;0.00;0.00;;;28.40;85.90;;;;;;4917443;29;20535;-75
2022/06/28 11:30:13;;;;;;;0.00;0.00;;;28.50;85.60;;;;;;4917588;29;20231;-75
2022/06/28 11:32:44;;;;;;;0.00;0.00;;;28.70;85.80;;;;;;4917287;29;20254;-75
2022/06/28 11:35:14;;;;;;;0.00;0.00;;;28.80;85.20;;;;;;4917452;29;20207;-74
2022/06/28 11:37:51;;;;;;;0.00;0.00;;;28.90;84.40;;;;;;4917183;29;20590;-74
2022/06/28 11:40:20;;;;;;;0.00;0.00;;;29.00;84.90;;;;;;4917581;29;20336;-74
2022/06/28 11:42:59;;;;;;;0.00;0.00;;;29.30;83.60;;;;;;4921122;29;20615;-75
2022/06/28 11:45:29;;;;;;;0.00;0.00;;;29.40;83.60;;;;;;4922123;29;20219;-75
2022/06/28 11:48:03;;;;;;;0.00;0.00;;;29.40;82.30;;;;;;4916891;29;20270;-74
2022/06/28 11:50:40;;;;;;;0.00;0.00;;;29.60;82.40;;;;;;4919623;29;20233;-74
2022/06/28 11:53:08;;;;;;;0.00;0.00;;;29.70;81.60;;;;;;4937167;29;20198;-75
2022/06/28 11:55:38;;;;;;;0.00;0.00;;;29.70;81.60;;;;;;4936602;29;20193;-74
2022/06/28 11:58:17;;;;;;;0.00;0.00;;;29.60;81.40;;;;;;4940156;29;20285;-73
2022/06/28 12:01:06;;;;;;;0.00;0.00;;;29.50;81.30;;;;;;4937027;29;20226;-74
2022/06/28 12:03:55;;;;;;;0.00;0.00;;;29.40;81.10;;;;;;4949208;29;20202;-74
2022/06/28 12:06:25;;;;;;;0.00;0.00;;;29.30;81.60;;;;;;4947251;29;20191;-75
2022/06/28 12:08:55;;;;;;;0.00;0.00;;;29.30;81.60;;;;;;4936397;29;20634;-74
2022/06/28 12:11:28;;;;;;;0.00;0.00;;;29.40;80.60;;;;;;4935783;29;20222;-74
2022/06/28 12:13:59;;;;;;;0.00;0.00;;;29.20;80.70;;;;;;4936682;29;20195;-74
2022/06/28 12:16:30;;;;;;;0.00;0.00;;;29.30;80.80;;;;;;4931205;29;20607;-75
2022/06/28 12:19:02;;;;;;;0.00;0.00;;;29.50;81.30;;;;;;4928780;29;20285;-74
2022/06/28 12:21:34;;;;;;;0.00;0.00;;;29.50;80.00;;;;;;4933955;29;20661;-74
2022/06/28 12:24:03;;;;;;;0.00;0.00;;;29.40;79.20;;;;;;4916671;29;20251;-74
2022/06/28 12:26:39;;;;;;;0.00;0.00;;;29.40;79.50;;;;;;4916565;29;20274;-74
2022/06/28 12:29:08;;;;;;;0.00;0.00;;;29.50;79.60;;;;;;4916565;29;20222;-73
2022/06/28 12:31:37;;;;;;;0.00;0.00;;;29.60;78.80;;;;;;4916642;29;20234;-74
2022/06/28 12:34:07;;;;;;;0.00;0.00;;;29.50;77.90;;;;;;4917157;29;20199;-74
2022/06/28 12:36:36;;;;;;;0.00;0.00;;;29.50;78.90;;;;;;4899417;29;20313;-74
2022/06/28 12:39:11;;;;;;;0.00;0.00;;;28.70;80.40;28.20;96973.00;;;;5089395;28;20635;-73
2022/06/28 12:41:39;;;;;;;0.00;0.00;;;28.70;81.10;28.80;96988.00;;;;5069169;28;20571;-73
2022/06/28 12:44:07;;;;;;;0.00;0.00;;;29.20;82.20;29.10;96989.00;;;;5069498;28;20241;-73
2022/06/28 12:46:35;;;;;;;0.00;0.00;;;29.40;81.80;29.30;97004.00;;;;5069102;28;20198;-73
2022/06/28 12:49:04;;;;;;;0.00;0.00;;;29.70;83.00;29.50;97026.00;;;;5069567;28;20712;-73
2022/06/28 12:51:32;;;;;;;0.00;0.00;;;29.80;80.60;29.50;97015.00;;;;5069352;28;20676;-73
2022/06/28 12:54:00;;;;;;;0.00;0.00;;;29.90;79.60;29.50;97019.00;;;;5076262;28;20220;-73
2022/06/28 12:56:29;;;;;;;0.00;0.00;;;29.90;79.30;29.50;97020.00;;;;5081198;28;20200;-73
2022/06/28 12:58:58;;;;;;;0.00;0.00;;;29.90;79.60;29.40;97000.00;;;;5078889;28;20226;-73
2022/06/28 13:01:26;;;;;;;0.00;0.00;;;29.80;80.90;29.20;97009.00;;;;5079340;28;20245;-73
2022/06/28 13:03:55;;;;;;;0.00;0.00;;;29.70;81.00;29.10;96996.00;;;;5080947;28;20190;-74
2022/06/28 13:06:24;;;;;;;0.00;0.00;;;29.60;80.80;29.10;96989.00;;;;5069154;28;20194;-74
2022/06/28 13:08:51;;;;;;;0.00;0.00;;;29.60;81.40;29.10;96982.00;;;;5069057;28;20213;-73
2022/06/28 13:11:22;;;;;;;0.00;0.00;;;29.60;81.90;29.20;96988.00;;;;5068754;28;20190;-73
2022/06/28 13:13:53;;;;;;;0.00;0.00;;;29.60;81.10;29.10;96988.00;;;;5068720;28;20198;-74
2022/06/28 13:16:21;;;;;;;0.00;0.00;;;29.60;80.00;28.80;96987.00;;;;5068890;28;20198;-73
2022/06/28 13:18:49;;;;;;;0.00;0.00;;;29.50;78.90;28.80;96978.00;;;;5068271;28;20260;-73